Flight Track Log - Related Links

Times and Time Zones

All times are in EST time to prevent confusion due to time zone crossing. See the SWA232 flight status page for this flight to view local times or setup timezone preferences in your user account.

Time Position Orientation Groundspeed Altitude Reporting Facility
EST Latitude Longitude Course Direction KTS MPH feet Rate Location/Type
Mon 03:44:57 PM 28.4167 -81.3000 180° South 154 177 700  Level Orlando TRACON
Mon 03:45:22 PM 28.4000 -81.3000 180° South 164 189 1,500 2,329 Climbing Orlando TRACON
Mon 03:46:22 PM 28.3500 -81.3333 210° Southwest 205 236 4,000 2,600 Climbing Orlando TRACON
Mon 03:47:22 PM 28.3500 -81.4000 270° West 211 243 6,700 2,400 Climbing Orlando TRACON
Mon 03:48:22 PM 28.4167 -81.4000 360° North 276 318 8,800 2,476 Climbing Orlando TRACON
Mon 03:49:28 PM 28.5167 -81.4000 360° North 331 381 11,900 2,850 Climbing Orlando TRACON
Mon 03:50:22 PM 28.6167 -81.4000 360° North 357 411 14,500 2,145 Climbing Orlando TRACON
Mon 03:52:13 PM 28.7903 -81.3931 North 389 448 17,800 2,000 Climbing Jacksonville Center
Mon 03:53:13 PM 28.9028 -81.3936 360° North 383 441 20,200 2,500 Climbing Jacksonville Center
Mon 03:54:13 PM 29.0197 -81.3942 360° North 397 457 22,800 2,150 Climbing Jacksonville Center
Mon 03:55:13 PM 29.1408 -81.3925 North 418 481 24,500 1,600 Climbing Jacksonville Center
Mon 03:56:13 PM 29.2619 -81.4050 355° North 425 489 26,000 1,800 Climbing Jacksonville Center
Mon 03:57:13 PM 29.3917 -81.4172 355° North 443 510 28,100 2,350 Climbing Jacksonville Center
Mon 03:58:13 PM 29.5294 -81.4319 355° North 448 516 30,700 2,200 Climbing Jacksonville Center
Mon 03:59:13 PM 29.6550 -81.4394 357° North 448 516 32,500 1,500 Climbing Jacksonville Center
Mon 04:00:13 PM 29.7844 -81.4472 357° North 453 521 33,700 1,650 Climbing Jacksonville Center
Mon 04:01:13 PM 29.9139 -81.4525 358° North 464 534 35,800 1,700 Climbing Jacksonville Center
Mon 04:02:13 PM 30.0392 -81.4625 356° North 459 528 37,100 1,300 Climbing Jacksonville Center
Mon 04:03:13 PM 30.1606 -81.4847 351° North 459 528 38,400 950 Climbing Jacksonville Center
Mon 04:04:13 PM 30.2819 -81.5069 351° North 446 513 39,000 300 Climbing Jacksonville Center
Mon 04:05:13 PM 30.3992 -81.5269 352° North 441 507 39,000  Level Jacksonville Center
Mon 04:06:13 PM 30.5206 -81.5517 350° North 441 507 39,000  Level Jacksonville Center
Mon 04:07:13 PM 30.6314 -81.5719 351° North 441 507 39,000  Level Jacksonville Center
Mon 04:08:13 PM 30.7506 -81.5944 351° North 436 502 39,000  Level Jacksonville Center
Mon 04:09:13 PM 30.8697 -81.6169 351° North 436 502 39,000  Level Jacksonville Center
Mon 04:10:13 PM 30.9892 -81.6422 350° North 431 496 39,000  Level Jacksonville Center
Mon 04:11:13 PM 31.1103 -81.6647 351° North 431 496 39,000  Level Jacksonville Center
Mon 04:12:13 PM 31.2317 -81.6875 351° North 431 496 39,000  Level Jacksonville Center
Mon 04:13:13 PM 31.3592 -81.7103 351° North 424 488 39,000  Level Jacksonville Center
Mon 04:14:13 PM 31.4828 -81.7331 351° North 429 494 39,000  Level Jacksonville Center
Mon 04:15:13 PM 31.5914 -81.7536 351° North 438 504 39,000  Level Jacksonville Center
Mon 04:16:13 PM 31.7253 -81.7789 351° North 444 511 39,000  Level Jacksonville Center
Mon 04:17:13 PM 31.8486 -81.8017 351° North 444 511 39,000  Level Jacksonville Center
Mon 04:18:13 PM 31.9594 -81.8250 350° North 444 511 39,000  Level Jacksonville Center
Mon 04:20:22 PM 32.2244 -81.8758 351° North 442 509 39,000  Level Atlanta Center
Mon 04:21:22 PM 32.3500 -81.8972 352° North 426 490 39,000  Level Atlanta Center
Mon 04:22:22 PM 32.4672 -81.9192 351° North 426 490 39,000  Level Atlanta Center
Mon 04:23:22 PM 32.5867 -81.9433 350° North 431 496 39,000  Level Atlanta Center
Mon 04:24:22 PM 32.7061 -81.9678 350° North 431 496 39,000  Level Atlanta Center
Mon 04:25:22 PM 32.8253 -81.9897 351° North 431 496 39,000  Level Atlanta Center
Mon 04:26:22 PM 32.9447 -82.0139 350° North 431 496 39,000  Level Atlanta Center
Mon 04:27:22 PM 33.0578 -82.0336 352° North 437 503 39,000  Level Atlanta Center
Mon 04:28:22 PM 33.1750 -82.0583 350° North 437 503 39,000  Level Atlanta Center
Mon 04:29:22 PM 33.2964 -82.0803 351° North 437 503 39,000  Level Atlanta Center
Mon 04:30:22 PM 33.4158 -82.1050 350° North 437 503 39,000  Level Atlanta Center
Mon 04:31:22 PM 33.5372 -82.1297 350° North 432 497 39,000  Level Atlanta Center
Mon 04:32:22 PM 33.6586 -82.1519 351° North 432 497 39,000  Level Atlanta Center
Mon 04:33:22 PM 33.7858 -82.1492 North 438 504 39,000  Level Atlanta Center
Mon 04:34:22 PM 33.9169 -82.1239 North 455 524 39,000  Level Atlanta Center
Mon 04:35:22 PM 34.0608 -82.1006 North 461 531 39,000  Level Atlanta Center
Mon 04:36:22 PM 34.1878 -82.0775 North 461 531 39,000  Level Atlanta Center
Mon 04:37:22 PM 34.3147 -82.0544 North 461 531 39,000  Level Atlanta Center
Mon 04:38:22 PM 34.4394 -82.0339 North 461 531 39,000  Level Atlanta Center
Mon 04:39:22 PM 34.5644 -82.0133 North 461 531 39,000  Level Atlanta Center
Mon 04:40:22 PM 34.6914 -81.9900 North 461 531 39,000  Level Atlanta Center
Mon 04:41:22 PM 34.8161 -81.9667 North 461 531 39,000  Level Atlanta Center
Mon 04:42:22 PM 34.9181 -81.9514 North 461 531 39,000  Level Atlanta Center
Mon 04:43:22 PM 35.0553 -81.9278 North 456 525 39,000  Level Atlanta Center
Mon 04:44:22 PM 35.1806 -81.9244 North 456 525 39,000  Level Atlanta Center
Mon 04:45:22 PM 35.3036 -81.9189 North 451 519 39,000  Level Atlanta Center
Mon 04:46:22 PM 35.4269 -81.9283 356° North 451 519 39,000  Level Atlanta Center
Mon 04:47:22 PM 35.5500 -81.9406 355° North 445 512 39,000  Level Atlanta Center
Mon 04:48:22 PM 35.6775 -81.9553 355° North 445 512 39,000  Level Atlanta Center
Mon 04:49:22 PM 35.8008 -81.9647 356° North 445 512 39,000  Level Atlanta Center
Mon 04:50:22 PM 35.9283 -81.9769 356° North 450 518 39,000  Level Atlanta Center
Mon 04:51:22 PM 36.0578 -81.9892 356° North 456 525 39,000  Level Atlanta Center
Mon 04:52:22 PM 36.1833 -82.0039 355° North 461 531 39,000  Level Atlanta Center
Mon 04:53:22 PM 36.3211 -82.0133 357° North 456 525 39,000  Level Atlanta Center
Mon 04:54:56 PM 36.5036 -82.0328 355° North 453 521 39,000  Level Indianapolis Center
Mon 04:55:58 PM 36.6283 -82.0453 355° North 453 521 39,000  Level Indianapolis Center
Mon 04:57:00 PM 36.7747 -82.0606 355° North 453 521 39,000  Level Indianapolis Center
Mon 04:58:01 PM 36.9011 -82.0731 355° North 453 521 39,000  Level Indianapolis Center
Mon 04:59:03 PM 37.0267 -82.0858 355° North 453 521 39,000  Level Indianapolis Center
Mon 05:00:04 PM 37.1544 -82.0992 355° North 455 524 39,000 -439 Level Indianapolis Center
Mon 05:01:06 PM 37.2786 -82.1128 355° North 454 522 38,100 -871 Descending Indianapolis Center
Mon 05:02:08 PM 37.4017 -82.1269 355° North 450 518 37,200 -1,024 Descending Indianapolis Center
Mon 05:03:09 PM 37.5442 -82.1406 356° North 445 512 36,000 -1,463 Descending Indianapolis Center
Mon 05:04:11 PM 37.6686 -82.1539 355° North 445 512 34,200 -1,805 Descending Indianapolis Center
Mon 05:05:12 PM 37.7872 -82.1664 355° North 435 501 32,300 -1,561 Descending Indianapolis Center
Mon 05:06:14 PM 37.9033 -82.1775 356° North 426 490 31,000 -634 Descending Indianapolis Center
Mon 05:07:15 PM 38.0186 -82.1900 355° North 421 484 31,000  Level Indianapolis Center
Mon 05:08:17 PM 38.1286 -82.2011 355° North 416 479 31,000  Level Indianapolis Center
Mon 05:09:18 PM 38.2436 -82.2136 355° North 413 475 31,000  Level Indianapolis Center
Mon 05:10:20 PM 38.3569 -82.2267 355° North 412 474 31,000  Level Indianapolis Center
Mon 05:11:21 PM 38.4942 -82.2403 356° North 411 473 31,000 -585 Level Indianapolis Center
Mon 05:12:23 PM 38.6083 -82.2533 355° North 411 473 29,800 -1,561 Descending Indianapolis Center
Mon 05:13:24 PM 38.7192 -82.2644 356° North 404 465 27,800 -2,098 Descending Indianapolis Center
Mon 05:14:26 PM 38.8228 -82.2758 355° North 381 438 25,500 -1,854 Descending Indianapolis Center
Mon 05:15:27 PM 38.9236 -82.2869 355° North 367 422 24,000 -1,623 Descending Indianapolis Center
Mon 05:16:28 PM 39.0225 -82.2983 355° North 359 413 22,200 -1,756 Descending Indianapolis Center
Mon 05:17:30 PM 39.1161 -82.3081 355° North 344 396 20,400 -1,805 Descending Indianapolis Center
Mon 05:18:31 PM 39.2094 -82.3194 355° North 340 391 18,500 -1,854 Descending Indianapolis Center
Mon 05:19:33 PM 39.3017 -82.3289 355° North 336 387 16,600 -2,171 Descending Indianapolis Center
Mon 05:20:16 PM 39.3786 -82.3403 353° North 325 374 14,700 -2,066 Descending Indianapolis Center
Mon 05:20:34 PM 39.3917 -82.3383 North 329 379 14,500 -1,650 Descending Indianapolis Center
Mon 05:21:36 PM 39.4844 -82.3525 353° North 315 362 12,500 -2,227 Descending Indianapolis Center
Mon 05:22:11 PM 39.5319 -82.3850 332° Northwest 295 339 10,900 -1,967 Descending Indianapolis Center
Mon 05:22:37 PM 39.5567 -82.3989 337° Northwest 299 344 10,500 -590 Descending Indianapolis Center
Mon 05:23:12 PM 39.6036 -82.4286 334° Northwest 281 323 10,300 -290 Descending Indianapolis Center
Mon 05:23:39 PM 39.6272 -82.4400 340° North 284 327 10,200 -269 Descending Indianapolis Center
Mon 05:24:19 PM 39.6772 -82.4722 334° Northwest 268 308 10,000 -197 Descending Indianapolis Center
Mon 05:24:40 PM 39.6922 -82.4811 335° Northwest 268 308 10,000  Level Indianapolis Center
Mon 05:25:19 PM 39.7364 -82.5139 330° Northwest 238 274 10,000 -387 Level Indianapolis Center
Mon 05:25:42 PM 39.7508 -82.5242 331° Northwest 250 288 9,600 -2,066 Descending Indianapolis Center
Mon 05:26:20 PM 39.7814 -82.5972 299° West 276 318 7,900 -2,164 Descending Indianapolis Center
Mon 05:26:43 PM 39.7958 -82.6247 304° West 270 311 7,400 -1,418 Descending Indianapolis Center
Mon 05:27:15 PM 39.8147 -82.6675 300° West 272 313 6,600 -1,355 Descending Indianapolis Center
Mon 05:27:45 PM 39.8336 -82.7081 301° West 270 311 6,000 -655 Descending Indianapolis Center
Mon 05:28:10 PM 39.8497 -82.7439 300° West 267 307 6,000  Level Indianapolis Center
Mon 05:29:11 PM 39.8756 -82.8269 292° West 243 280 6,000  Level Indianapolis Center
Mon 05:29:48 PM 39.8892 -82.8706 292° West 240 276 6,000 -100 Level Indianapolis Center
Mon 05:30:11 PM 39.9011 -82.9128 290° West 231 266 5,900 -581 Descending Indianapolis Center
Mon 05:30:50 PM 39.9117 -82.9511 290° West 239 275 5,400 -822 Descending Indianapolis Center
Mon 05:31:24 PM 39.9261 -83.0014 291° West 224 258 4,900 -1,074 Descending Indianapolis Center
Mon 05:32:25 PM 39.9658 -83.0489 318° Northwest 206 237 3,700 -1,011 Descending Indianapolis Center
Mon 05:32:53 PM 39.9831 -83.0489 360° North 216 249 3,400 -900 Descending Indianapolis Center
Mon 05:33:25 PM 39.9961 -83.0183 61° Northeast 147 169 2,800 -1,180 Descending Indianapolis Center
Mon 05:33:54 PM 39.9978 -82.9917 85° East 162 186 2,200 -1,082 Descending Indianapolis Center
Mon 05:34:26 PM 39.9967 -82.9664 93° East 124 143 1,700 -774 Descending Indianapolis Center
Mon 05:34:56 PM 39.9964 -82.9428 91° East 143 165 1,400 -655 Descending Indianapolis Center
Mon 05:35:21 PM 39.9947 -82.9225 96° East 135 155 1,100 -290 Descending Indianapolis Center
Mon 05:35:58 PM 39.9936 -82.8972 93° East 140 161 1,100  Level Indianapolis Center

Login

Don't have an account? Register now (free) for customized features, flight alerts, and more!